sensor_id;sensor_type;location;lat;lon;timestamp;P1;durP1;ratioP1;P2;durP2;ratioP2
59530;SDS011;45349;48.692;8.186;2022-07-22T00:01:39;8.63;;;7.73;;
59530;SDS011;45349;48.692;8.186;2022-07-22T00:04:05;10.07;;;8.30;;
59530;SDS011;45349;48.692;8.186;2022-07-22T00:06:32;9.57;;;8.17;;
59530;SDS011;45349;48.692;8.186;2022-07-22T00:08:59;9.20;;;7.90;;
59530;SDS011;45349;48.692;8.186;2022-07-22T00:11:26;10.57;;;8.27;;
59530;SDS011;45349;48.692;8.186;2022-07-22T00:13:55;10.20;;;7.67;;
59530;SDS011;45349;48.692;8.186;2022-07-22T00:16:21;9.33;;;7.90;;
59530;SDS011;45349;48.692;8.186;2022-07-22T00:18:49;9.77;;;7.83;;
59530;SDS011;45349;48.692;8.186;2022-07-22T00:21:15;10.40;;;7.70;;
59530;SDS011;45349;48.692;8.186;2022-07-22T00:23:43;8.80;;;7.73;;
59530;SDS011;45349;48.692;8.186;2022-07-22T00:26:10;11.90;;;8.03;;
59530;SDS011;45349;48.692;8.186;2022-07-22T00:28:37;10.17;;;8.43;;
59530;SDS011;45349;48.692;8.186;2022-07-22T00:31:06;9.83;;;7.93;;
59530;SDS011;45349;48.692;8.186;2022-07-22T00:33:33;10.40;;;8.37;;
59530;SDS011;45349;48.692;8.186;2022-07-22T00:36:00;11.70;;;8.33;;
59530;SDS011;45349;48.692;8.186;2022-07-22T00:38:27;10.73;;;8.10;;
59530;SDS011;45349;48.692;8.186;2022-07-22T00:40:54;9.70;;;7.83;;
59530;SDS011;45349;48.692;8.186;2022-07-22T00:43:21;8.83;;;7.90;;
59530;SDS011;45349;48.692;8.186;2022-07-22T00:45:48;11.13;;;8.80;;
59530;SDS011;45349;48.692;8.186;2022-07-22T00:48:17;9.13;;;8.13;;
59530;SDS011;45349;48.692;8.186;2022-07-22T00:50:44;9.97;;;8.60;;
59530;SDS011;45349;48.692;8.186;2022-07-22T00:53:11;13.80;;;8.00;;
59530;SDS011;45349;48.692;8.186;2022-07-22T00:55:38;9.50;;;7.90;;
59530;SDS011;45349;48.692;8.186;2022-07-22T00:58:06;10.73;;;8.43;;
59530;SDS011;45349;48.692;8.186;2022-07-22T01:00:52;8.83;;;7.73;;
59530;SDS011;45349;48.692;8.186;2022-07-22T01:03:20;13.23;;;8.67;;
59530;SDS011;45349;48.692;8.186;2022-07-22T01:05:47;10.13;;;8.83;;
59530;SDS011;45349;48.692;8.186;2022-07-22T01:08:14;14.47;;;8.00;;
59530;SDS011;45349;48.692;8.186;2022-07-22T01:10:42;11.83;;;8.60;;
59530;SDS011;45349;48.692;8.186;2022-07-22T01:13:09;9.17;;;7.67;;
59530;SDS011;45349;48.692;8.186;2022-07-22T01:15:36;8.50;;;7.63;;
59530;SDS011;45349;48.692;8.186;2022-07-22T01:18:03;12.60;;;8.13;;
59530;SDS011;45349;48.692;8.186;2022-07-22T01:20:32;9.40;;;7.77;;
59530;SDS011;45349;48.692;8.186;2022-07-22T01:23:01;11.80;;;7.87;;
59530;SDS011;45349;48.692;8.186;2022-07-22T01:25:28;8.77;;;7.87;;
59530;SDS011;45349;48.692;8.186;2022-07-22T01:27:55;12.27;;;7.93;;
59530;SDS011;45349;48.692;8.186;2022-07-22T01:30:24;11.40;;;8.00;;
59530;SDS011;45349;48.692;8.186;2022-07-22T01:32:50;9.57;;;7.67;;
59530;SDS011;45349;48.692;8.186;2022-07-22T01:35:17;10.10;;;8.53;;
59530;SDS011;45349;48.692;8.186;2022-07-22T01:37:46;10.73;;;7.63;;
59530;SDS011;45349;48.692;8.186;2022-07-22T01:40:13;11.73;;;8.37;;
59530;SDS011;45349;48.692;8.186;2022-07-22T01:42:40;10.97;;;8.37;;
59530;SDS011;45349;48.692;8.186;2022-07-22T01:45:09;9.43;;;8.40;;
59530;SDS011;45349;48.692;8.186;2022-07-22T01:47:36;11.40;;;8.33;;
59530;SDS011;45349;48.692;8.186;2022-07-22T01:50:05;9.13;;;8.23;;
59530;SDS011;45349;48.692;8.186;2022-07-22T01:52:34;9.73;;;8.60;;
59530;SDS011;45349;48.692;8.186;2022-07-22T01:55:04;12.63;;;9.13;;
59530;SDS011;45349;48.692;8.186;2022-07-22T01:57:31;10.23;;;8.33;;
59530;SDS011;45349;48.692;8.186;2022-07-22T02:00:00;9.57;;;8.53;;
59530;SDS011;45349;48.692;8.186;2022-07-22T02:02:30;9.33;;;8.43;;
59530;SDS011;45349;48.692;8.186;2022-07-22T02:04:57;9.87;;;8.10;;
59530;SDS011;45349;48.692;8.186;2022-07-22T02:07:25;9.87;;;7.93;;
59530;SDS011;45349;48.692;8.186;2022-07-22T02:09:52;10.90;;;8.13;;
59530;SDS011;45349;48.692;8.186;2022-07-22T02:12:21;11.90;;;9.07;;
59530;SDS011;45349;48.692;8.186;2022-07-22T02:15:06;10.77;;;8.73;;
59530;SDS011;45349;48.692;8.186;2022-07-22T02:17:34;9.97;;;8.73;;
59530;SDS011;45349;48.692;8.186;2022-07-22T02:20:03;9.57;;;8.50;;
59530;SDS011;45349;48.692;8.186;2022-07-22T02:22:30;10.47;;;8.33;;
59530;SDS011;45349;48.692;8.186;2022-07-22T02:24:57;11.10;;;9.17;;
59530;SDS011;45349;48.692;8.186;2022-07-22T02:27:25;10.23;;;9.10;;
59530;SDS011;45349;48.692;8.186;2022-07-22T02:29:53;10.37;;;8.87;;
59530;SDS011;45349;48.692;8.186;2022-07-22T02:32:21;11.67;;;8.60;;
59530;SDS011;45349;48.692;8.186;2022-07-22T02:34:49;10.00;;;8.50;;
59530;SDS011;45349;48.692;8.186;2022-07-22T02:37:16;12.00;;;8.63;;
59530;SDS011;45349;48.692;8.186;2022-07-22T02:40:02;10.60;;;9.10;;
59530;SDS011;45349;48.692;8.186;2022-07-22T02:42:31;9.67;;;8.63;;
59530;SDS011;45349;48.692;8.186;2022-07-22T02:44:58;8.70;;;7.80;;
59530;SDS011;45349;48.692;8.186;2022-07-22T02:47:26;11.10;;;8.53;;
59530;SDS011;45349;48.692;8.186;2022-07-22T02:49:54;13.33;;;8.57;;
59530;SDS011;45349;48.692;8.186;2022-07-22T02:52:22;10.83;;;8.63;;
59530;SDS011;45349;48.692;8.186;2022-07-22T02:54:48;11.90;;;8.20;;
59530;SDS011;45349;48.692;8.186;2022-07-22T02:57:15;9.67;;;8.17;;
59530;SDS011;45349;48.692;8.186;2022-07-22T02:59:43;12.10;;;8.60;;
59530;SDS011;45349;48.692;8.186;2022-07-22T03:02:12;13.03;;;8.60;;
59530;SDS011;45349;48.692;8.186;2022-07-22T03:04:39;11.40;;;9.37;;
59530;SDS011;45349;48.692;8.186;2022-07-22T03:07:06;9.73;;;8.57;;
59530;SDS011;45349;48.692;8.186;2022-07-22T03:09:34;9.97;;;8.53;;
59530;SDS011;45349;48.692;8.186;2022-07-22T03:12:01;9.90;;;8.57;;
59530;SDS011;45349;48.692;8.186;2022-07-22T03:14:27;10.17;;;9.17;;
59530;SDS011;45349;48.692;8.186;2022-07-22T03:16:56;14.07;;;9.07;;
59530;SDS011;45349;48.692;8.186;2022-07-22T03:19:24;10.70;;;8.97;;
59530;SDS011;45349;48.692;8.186;2022-07-22T03:21:53;12.20;;;8.90;;
59530;SDS011;45349;48.692;8.186;2022-07-22T03:24:21;12.27;;;9.40;;
59530;SDS011;45349;48.692;8.186;2022-07-22T03:26:50;9.83;;;8.40;;
59530;SDS011;45349;48.692;8.186;2022-07-22T03:29:17;12.60;;;9.50;;
59530;SDS011;45349;48.692;8.186;2022-07-22T03:31:44;10.37;;;8.57;;
59530;SDS011;45349;48.692;8.186;2022-07-22T03:34:14;12.50;;;9.17;;
59530;SDS011;45349;48.692;8.186;2022-07-22T03:36:50;11.40;;;8.83;;
59530;SDS011;45349;48.692;8.186;2022-07-22T03:39:17;10.87;;;9.63;;
59530;SDS011;45349;48.692;8.186;2022-07-22T03:41:44;12.13;;;8.73;;
59530;SDS011;45349;48.692;8.186;2022-07-22T03:44:12;11.80;;;9.10;;
59530;SDS011;45349;48.692;8.186;2022-07-22T03:46:39;12.50;;;8.77;;
59530;SDS011;45349;48.692;8.186;2022-07-22T03:49:06;11.73;;;8.53;;
59530;SDS011;45349;48.692;8.186;2022-07-22T03:51:35;10.30;;;9.20;;
59530;SDS011;45349;48.692;8.186;2022-07-22T03:54:02;10.20;;;8.87;;
59530;SDS011;45349;48.692;8.186;2022-07-22T03:56:30;10.90;;;8.73;;
59530;SDS011;45349;48.692;8.186;2022-07-22T03:58:59;10.27;;;8.57;;
59530;SDS011;45349;48.692;8.186;2022-07-22T04:01:27;9.83;;;8.50;;
59530;SDS011;45349;48.692;8.186;2022-07-22T04:03:55;12.40;;;9.33;;
59530;SDS011;45349;48.692;8.186;2022-07-22T04:06:32;10.50;;;8.63;;
59530;SDS011;45349;48.692;8.186;2022-07-22T04:09:08;11.50;;;8.80;;
59530;SDS011;45349;48.692;8.186;2022-07-22T04:11:35;11.20;;;8.63;;
59530;SDS011;45349;48.692;8.186;2022-07-22T04:14:03;11.27;;;8.43;;
59530;SDS011;45349;48.692;8.186;2022-07-22T04:16:30;12.63;;;8.70;;
59530;SDS011;45349;48.692;8.186;2022-07-22T04:19:03;9.83;;;8.80;;
59530;SDS011;45349;48.692;8.186;2022-07-22T04:21:52;12.63;;;8.50;;
59530;SDS011;45349;48.692;8.186;2022-07-22T04:24:22;11.97;;;9.10;;
59530;SDS011;45349;48.692;8.186;2022-07-22T04:26:53;10.13;;;8.53;;
59530;SDS011;45349;48.692;8.186;2022-07-22T04:29:23;12.23;;;9.20;;
59530;SDS011;45349;48.692;8.186;2022-07-22T04:31:52;11.57;;;8.77;;
59530;SDS011;45349;48.692;8.186;2022-07-22T04:34:19;14.00;;;9.60;;
59530;SDS011;45349;48.692;8.186;2022-07-22T04:36:47;12.73;;;9.33;;
59530;SDS011;45349;48.692;8.186;2022-07-22T04:39:14;11.07;;;9.10;;
59530;SDS011;45349;48.692;8.186;2022-07-22T04:42:01;10.27;;;9.17;;
59530;SDS011;45349;48.692;8.186;2022-07-22T04:44:29;11.97;;;9.17;;
59530;SDS011;45349;48.692;8.186;2022-07-22T04:47:00;12.63;;;9.53;;
59530;SDS011;45349;48.692;8.186;2022-07-22T04:49:29;11.93;;;9.20;;
59530;SDS011;45349;48.692;8.186;2022-07-22T04:51:58;10.43;;;9.30;;
59530;SDS011;45349;48.692;8.186;2022-07-22T04:54:35;12.00;;;9.77;;
59530;SDS011;45349;48.692;8.186;2022-07-22T04:57:04;11.67;;;8.93;;
59530;SDS011;45349;48.692;8.186;2022-07-22T04:59:30;10.30;;;8.93;;
59530;SDS011;45349;48.692;8.186;2022-07-22T05:01:58;12.27;;;9.47;;
59530;SDS011;45349;48.692;8.186;2022-07-22T05:04:25;11.10;;;8.73;;
59530;SDS011;45349;48.692;8.186;2022-07-22T05:06:52;11.93;;;8.73;;
59530;SDS011;45349;48.692;8.186;2022-07-22T05:09:21;10.70;;;8.97;;
59530;SDS011;45349;48.692;8.186;2022-07-22T05:11:50;12.00;;;9.20;;
59530;SDS011;45349;48.692;8.186;2022-07-22T05:14:21;9.90;;;8.90;;
59530;SDS011;45349;48.692;8.186;2022-07-22T05:16:48;12.87;;;8.97;;
59530;SDS011;45349;48.692;8.186;2022-07-22T05:19:15;9.90;;;8.70;;
59530;SDS011;45349;48.692;8.186;2022-07-22T05:21:42;10.33;;;9.10;;
59530;SDS011;45349;48.692;8.186;2022-07-22T05:24:10;10.17;;;9.17;;
59530;SDS011;45349;48.692;8.186;2022-07-22T05:26:38;10.23;;;8.50;;
59530;SDS011;45349;48.692;8.186;2022-07-22T05:29:05;14.37;;;9.20;;
59530;SDS011;45349;48.692;8.186;2022-07-22T05:31:34;10.40;;;8.60;;
59530;SDS011;45349;48.692;8.186;2022-07-22T05:34:02;12.30;;;8.70;;
59530;SDS011;45349;48.692;8.186;2022-07-22T05:36:39;10.23;;;8.47;;
59530;SDS011;45349;48.692;8.186;2022-07-22T05:39:07;10.90;;;8.30;;
59530;SDS011;45349;48.692;8.186;2022-07-22T05:41:34;11.83;;;8.90;;
59530;SDS011;45349;48.692;8.186;2022-07-22T05:44:03;10.47;;;8.80;;
59530;SDS011;45349;48.692;8.186;2022-07-22T05:46:30;11.33;;;9.63;;
59530;SDS011;45349;48.692;8.186;2022-07-22T05:49:00;9.83;;;8.70;;
59530;SDS011;45349;48.692;8.186;2022-07-22T05:51:32;12.17;;;9.30;;
59530;SDS011;45349;48.692;8.186;2022-07-22T05:53:59;9.97;;;8.90;;
59530;SDS011;45349;48.692;8.186;2022-07-22T05:56:28;11.87;;;9.23;;
59530;SDS011;45349;48.692;8.186;2022-07-22T05:58:56;9.57;;;8.60;;
59530;SDS011;45349;48.692;8.186;2022-07-22T06:01:22;10.20;;;9.20;;
59530;SDS011;45349;48.692;8.186;2022-07-22T06:03:52;10.43;;;7.93;;
59530;SDS011;45349;48.692;8.186;2022-07-22T06:06:21;10.63;;;8.90;;
59530;SDS011;45349;48.692;8.186;2022-07-22T06:08:48;11.67;;;9.30;;
59530;SDS011;45349;48.692;8.186;2022-07-22T06:11:16;9.97;;;8.10;;
59530;SDS011;45349;48.692;8.186;2022-07-22T06:13:42;11.67;;;8.53;;
59530;SDS011;45349;48.692;8.186;2022-07-22T06:16:28;11.27;;;8.60;;
59530;SDS011;45349;48.692;8.186;2022-07-22T06:19:13;11.13;;;8.77;;
59530;SDS011;45349;48.692;8.186;2022-07-22T06:21:43;9.63;;;8.73;;
59530;SDS011;45349;48.692;8.186;2022-07-22T06:24:12;11.60;;;9.07;;
59530;SDS011;45349;48.692;8.186;2022-07-22T06:26:39;10.63;;;8.30;;
59530;SDS011;45349;48.692;8.186;2022-07-22T06:29:07;12.40;;;8.20;;
59530;SDS011;45349;48.692;8.186;2022-07-22T06:31:35;10.10;;;8.30;;
59530;SDS011;45349;48.692;8.186;2022-07-22T06:34:03;11.57;;;8.40;;
59530;SDS011;45349;48.692;8.186;2022-07-22T06:36:43;11.83;;;8.63;;
59530;SDS011;45349;48.692;8.186;2022-07-22T06:39:11;9.93;;;8.53;;
59530;SDS011;45349;48.692;8.186;2022-07-22T06:42:03;10.37;;;8.73;;
59530;SDS011;45349;48.692;8.186;2022-07-22T06:44:50;9.27;;;8.23;;
59530;SDS011;45349;48.692;8.186;2022-07-22T06:47:29;9.10;;;7.90;;
59530;SDS011;45349;48.692;8.186;2022-07-22T06:49:57;11.33;;;7.97;;
59530;SDS011;45349;48.692;8.186;2022-07-22T06:52:25;12.37;;;8.93;;
59530;SDS011;45349;48.692;8.186;2022-07-22T06:55:11;9.43;;;8.30;;
59530;SDS011;45349;48.692;8.186;2022-07-22T06:57:46;10.37;;;9.27;;
59530;SDS011;45349;48.692;8.186;2022-07-22T07:00:15;13.03;;;9.23;;
59530;SDS011;45349;48.692;8.186;2022-07-22T07:03:11;11.57;;;9.53;;
59530;SDS011;45349;48.692;8.186;2022-07-22T07:05:38;11.50;;;9.47;;
59530;SDS011;45349;48.692;8.186;2022-07-22T07:08:08;9.60;;;8.60;;
59530;SDS011;45349;48.692;8.186;2022-07-22T07:10:36;12.93;;;9.57;;
59530;SDS011;45349;48.692;8.186;2022-07-22T07:13:09;13.13;;;9.33;;
59530;SDS011;45349;48.692;8.186;2022-07-22T07:15:40;10.30;;;9.20;;
59530;SDS011;45349;48.692;8.186;2022-07-22T07:18:08;11.67;;;9.47;;
59530;SDS011;45349;48.692;8.186;2022-07-22T07:20:36;11.47;;;9.17;;
59530;SDS011;45349;48.692;8.186;2022-07-22T07:23:07;10.80;;;8.83;;
59530;SDS011;45349;48.692;8.186;2022-07-22T07:25:40;11.97;;;8.27;;
59530;SDS011;45349;48.692;8.186;2022-07-22T07:28:08;16.00;;;9.40;;
59530;SDS011;45349;48.692;8.186;2022-07-22T07:30:57;11.77;;;9.13;;
59530;SDS011;45349;48.692;8.186;2022-07-22T07:33:25;14.10;;;10.07;;
59530;SDS011;45349;48.692;8.186;2022-07-22T07:35:55;10.10;;;8.37;;
59530;SDS011;45349;48.692;8.186;2022-07-22T07:38:47;11.93;;;8.80;;
59530;SDS011;45349;48.692;8.186;2022-07-22T07:41:16;11.37;;;8.90;;
59530;SDS011;45349;48.692;8.186;2022-07-22T07:43:46;9.30;;;8.27;;
59530;SDS011;45349;48.692;8.186;2022-07-22T07:46:13;12.57;;;9.67;;
59530;SDS011;45349;48.692;8.186;2022-07-22T07:48:41;14.03;;;10.07;;
59530;SDS011;45349;48.692;8.186;2022-07-22T07:51:08;13.10;;;9.23;;
59530;SDS011;45349;48.692;8.186;2022-07-22T07:53:35;15.90;;;9.70;;
59530;SDS011;45349;48.692;8.186;2022-07-22T07:56:03;13.80;;;9.37;;
59530;SDS011;45349;48.692;8.186;2022-07-22T07:58:30;9.73;;;8.63;;
59530;SDS011;45349;48.692;8.186;2022-07-22T08:00:58;11.57;;;9.40;;
59530;SDS011;45349;48.692;8.186;2022-07-22T08:03:25;10.37;;;9.20;;
59530;SDS011;45349;48.692;8.186;2022-07-22T08:05:52;10.57;;;8.83;;
59530;SDS011;45349;48.692;8.186;2022-07-22T08:08:24;12.10;;;9.53;;
59530;SDS011;45349;48.692;8.186;2022-07-22T08:10:53;10.60;;;9.43;;
59530;SDS011;45349;48.692;8.186;2022-07-22T08:13:41;10.30;;;8.47;;
59530;SDS011;45349;48.692;8.186;2022-07-22T08:16:20;13.27;;;9.73;;
59530;SDS011;45349;48.692;8.186;2022-07-22T08:18:48;10.47;;;9.33;;
59530;SDS011;45349;48.692;8.186;2022-07-22T08:21:15;11.83;;;9.20;;
59530;SDS011;45349;48.692;8.186;2022-07-22T08:23:51;13.00;;;9.10;;
59530;SDS011;45349;48.692;8.186;2022-07-22T08:26:18;10.90;;;9.10;;
59530;SDS011;45349;48.692;8.186;2022-07-22T08:28:47;11.73;;;9.80;;
59530;SDS011;45349;48.692;8.186;2022-07-22T08:31:14;10.13;;;9.03;;
59530;SDS011;45349;48.692;8.186;2022-07-22T08:33:42;15.80;;;9.77;;
59530;SDS011;45349;48.692;8.186;2022-07-22T08:36:09;10.63;;;9.23;;
59530;SDS011;45349;48.692;8.186;2022-07-22T08:38:37;11.47;;;9.30;;
59530;SDS011;45349;48.692;8.186;2022-07-22T08:41:05;14.00;;;9.13;;
59530;SDS011;45349;48.692;8.186;2022-07-22T08:43:34;15.03;;;9.73;;
59530;SDS011;45349;48.692;8.186;2022-07-22T08:46:05;12.60;;;10.17;;
59530;SDS011;45349;48.692;8.186;2022-07-22T08:48:51;12.83;;;9.37;;
59530;SDS011;45349;48.692;8.186;2022-07-22T08:51:36;11.70;;;9.20;;
59530;SDS011;45349;48.692;8.186;2022-07-22T08:54:35;12.20;;;9.83;;
59530;SDS011;45349;48.692;8.186;2022-07-22T08:57:04;10.20;;;9.00;;
59530;SDS011;45349;48.692;8.186;2022-07-22T08:59:32;13.53;;;9.50;;
59530;SDS011;45349;48.692;8.186;2022-07-22T09:02:05;13.07;;;9.37;;
59530;SDS011;45349;48.692;8.186;2022-07-22T09:04:49;13.13;;;9.30;;
59530;SDS011;45349;48.692;8.186;2022-07-22T09:07:24;12.87;;;10.03;;
59530;SDS011;45349;48.692;8.186;2022-07-22T09:09:54;12.97;;;10.03;;
59530;SDS011;45349;48.692;8.186;2022-07-22T09:12:51;12.10;;;9.47;;
59530;SDS011;45349;48.692;8.186;2022-07-22T09:15:45;11.47;;;9.57;;
59530;SDS011;45349;48.692;8.186;2022-07-22T09:18:45;11.13;;;9.63;;
59530;SDS011;45349;48.692;8.186;2022-07-22T09:21:40;10.93;;;9.73;;
59530;SDS011;45349;48.692;8.186;2022-07-22T09:24:27;11.47;;;10.27;;
59530;SDS011;45349;48.692;8.186;2022-07-22T09:27:22;13.17;;;9.37;;
59530;SDS011;45349;48.692;8.186;2022-07-22T09:30:11;10.90;;;9.50;;
59530;SDS011;45349;48.692;8.186;2022-07-22T09:32:58;17.40;;;9.93;;
59530;SDS011;45349;48.692;8.186;2022-07-22T09:35:41;11.40;;;8.77;;
59530;SDS011;45349;48.692;8.186;2022-07-22T09:38:09;12.17;;;9.43;;
59530;SDS011;45349;48.692;8.186;2022-07-22T09:40:38;12.40;;;9.70;;
59530;SDS011;45349;48.692;8.186;2022-07-22T09:43:08;10.43;;;8.90;;
59530;SDS011;45349;48.692;8.186;2022-07-22T09:45:45;13.33;;;9.40;;
59530;SDS011;45349;48.692;8.186;2022-07-22T09:48:15;13.27;;;9.70;;
59530;SDS011;45349;48.692;8.186;2022-07-22T09:50:56;11.87;;;9.67;;
59530;SDS011;45349;48.692;8.186;2022-07-22T09:53:53;11.13;;;9.30;;
59530;SDS011;45349;48.692;8.186;2022-07-22T09:56:26;15.20;;;9.83;;
59530;SDS011;45349;48.692;8.186;2022-07-22T09:58:56;13.83;;;9.80;;
59530;SDS011;45349;48.692;8.186;2022-07-22T10:01:29;13.13;;;9.20;;
59530;SDS011;45349;48.692;8.186;2022-07-22T10:03:56;11.60;;;9.50;;
59530;SDS011;45349;48.692;8.186;2022-07-22T10:06:25;10.77;;;9.37;;
59530;SDS011;45349;48.692;8.186;2022-07-22T10:08:52;12.17;;;9.70;;
59530;SDS011;45349;48.692;8.186;2022-07-22T10:11:19;12.40;;;8.90;;
59530;SDS011;45349;48.692;8.186;2022-07-22T10:13:46;12.30;;;9.27;;
59530;SDS011;45349;48.692;8.186;2022-07-22T10:16:14;10.83;;;9.73;;
59530;SDS011;45349;48.692;8.186;2022-07-22T10:18:44;12.33;;;10.83;;
59530;SDS011;45349;48.692;8.186;2022-07-22T10:21:32;10.00;;;9.00;;
59530;SDS011;45349;48.692;8.186;2022-07-22T10:24:07;10.67;;;9.67;;
59530;SDS011;45349;48.692;8.186;2022-07-22T10:26:58;11.30;;;9.20;;
59530;SDS011;45349;48.692;8.186;2022-07-22T10:29:27;12.97;;;9.40;;
59530;SDS011;45349;48.692;8.186;2022-07-22T10:32:21;9.63;;;8.63;;
59530;SDS011;45349;48.692;8.186;2022-07-22T10:38:02;9.93;;;8.80;;
59530;SDS011;45349;48.692;8.186;2022-07-22T10:40:31;9.87;;;8.93;;
59530;SDS011;45349;48.692;8.186;2022-07-22T10:43:13;10.50;;;8.87;;
59530;SDS011;45349;48.692;8.186;2022-07-22T10:45:41;13.00;;;9.43;;
59530;SDS011;45349;48.692;8.186;2022-07-22T10:48:12;11.17;;;8.93;;
59530;SDS011;45349;48.692;8.186;2022-07-22T10:50:41;10.33;;;8.83;;
59530;SDS011;45349;48.692;8.186;2022-07-22T10:53:22;9.90;;;8.90;;
59530;SDS011;45349;48.692;8.186;2022-07-22T10:56:01;9.67;;;8.77;;
59530;SDS011;45349;48.692;8.186;2022-07-22T10:58:40;9.50;;;8.60;;
59530;SDS011;45349;48.692;8.186;2022-07-22T11:01:13;11.93;;;9.17;;
59530;SDS011;45349;48.692;8.186;2022-07-22T11:03:42;11.00;;;8.93;;
59530;SDS011;45349;48.692;8.186;2022-07-22T11:08:58;11.10;;;9.10;;
59530;SDS011;45349;48.692;8.186;2022-07-22T11:11:33;11.37;;;9.10;;
59530;SDS011;45349;48.692;8.186;2022-07-22T11:14:11;12.50;;;8.50;;
59530;SDS011;45349;48.692;8.186;2022-07-22T11:16:44;10.57;;;8.30;;
59530;SDS011;45349;48.692;8.186;2022-07-22T11:19:12;9.10;;;8.20;;
59530;SDS011;45349;48.692;8.186;2022-07-22T11:21:39;10.93;;;8.63;;
59530;SDS011;45349;48.692;8.186;2022-07-22T11:24:07;10.20;;;8.20;;
59530;SDS011;45349;48.692;8.186;2022-07-22T11:26:41;11.23;;;9.27;;
59530;SDS011;45349;48.692;8.186;2022-07-22T11:29:30;11.45;;;8.48;;
59530;SDS011;45349;48.692;8.186;2022-07-22T11:32:00;10.67;;;9.07;;
59530;SDS011;45349;48.692;8.186;2022-07-22T11:34:28;11.87;;;8.20;;
59530;SDS011;45349;48.692;8.186;2022-07-22T11:36:56;10.63;;;8.55;;
59530;SDS011;45349;48.692;8.186;2022-07-22T11:39:25;9.50;;;8.57;;
59530;SDS011;45349;48.692;8.186;2022-07-22T11:42:11;9.20;;;8.27;;
59530;SDS011;45349;48.692;8.186;2022-07-22T11:44:38;10.65;;;8.32;;
59530;SDS011;45349;48.692;8.186;2022-07-22T11:47:06;10.73;;;9.00;;
59530;SDS011;45349;48.692;8.186;2022-07-22T11:49:34;12.38;;;8.60;;
59530;SDS011;45349;48.692;8.186;2022-07-22T11:52:03;9.50;;;8.60;;
59530;SDS011;45349;48.692;8.186;2022-07-22T11:54:37;11.20;;;8.97;;
59530;SDS011;45349;48.692;8.186;2022-07-22T11:57:04;9.03;;;8.13;;
59530;SDS011;45349;48.692;8.186;2022-07-22T11:59:32;11.88;;;8.38;;
59530;SDS011;45349;48.692;8.186;2022-07-22T12:02:00;9.27;;;8.30;;
59530;SDS011;45349;48.692;8.186;2022-07-22T12:04:27;13.93;;;8.00;;
59530;SDS011;45349;48.692;8.186;2022-07-22T12:06:57;12.70;;;8.73;;
59530;SDS011;45349;48.692;8.186;2022-07-22T12:09:28;12.98;;;8.55;;
59530;SDS011;45349;48.692;8.186;2022-07-22T12:11:58;11.30;;;8.00;;
59530;SDS011;45349;48.692;8.186;2022-07-22T12:14:26;9.38;;;8.43;;
59530;SDS011;45349;48.692;8.186;2022-07-22T12:16:55;12.30;;;9.23;;
59530;SDS011;45349;48.692;8.186;2022-07-22T12:19:24;12.32;;;8.15;;
59530;SDS011;45349;48.692;8.186;2022-07-22T12:21:56;10.40;;;8.27;;
59530;SDS011;45349;48.692;8.186;2022-07-22T12:24:25;9.32;;;7.82;;
59530;SDS011;45349;48.692;8.186;2022-07-22T12:26:55;9.43;;;8.40;;
59530;SDS011;45349;48.692;8.186;2022-07-22T12:29:25;9.13;;;8.05;;
59530;SDS011;45349;48.692;8.186;2022-07-22T12:31:54;12.65;;;8.20;;
59530;SDS011;45349;48.692;8.186;2022-07-22T12:34:30;10.73;;;8.50;;
59530;SDS011;45349;48.692;8.186;2022-07-22T12:37:15;9.23;;;8.27;;
59530;SDS011;45349;48.692;8.186;2022-07-22T12:39:57;10.65;;;7.78;;
59530;SDS011;45349;48.692;8.186;2022-07-22T12:42:27;9.63;;;8.27;;
59530;SDS011;45349;48.692;8.186;2022-07-22T12:45:00;9.73;;;7.90;;
59530;SDS011;45349;48.692;8.186;2022-07-22T12:47:40;10.60;;;8.02;;
59530;SDS011;45349;48.692;8.186;2022-07-22T12:50:17;12.77;;;8.93;;
59530;SDS011;45349;48.692;8.186;2022-07-22T12:52:46;9.15;;;8.23;;
59530;SDS011;45349;48.692;8.186;2022-07-22T12:55:13;9.02;;;8.13;;
59530;SDS011;45349;48.692;8.186;2022-07-22T12:57:40;12.07;;;8.13;;
59530;SDS011;45349;48.692;8.186;2022-07-22T13:00:09;11.80;;;8.52;;
59530;SDS011;45349;48.692;8.186;2022-07-22T13:02:37;11.27;;;8.80;;
59530;SDS011;45349;48.692;8.186;2022-07-22T13:05:04;8.60;;;7.80;;
59530;SDS011;45349;48.692;8.186;2022-07-22T13:07:31;9.85;;;7.88;;
59530;SDS011;45349;48.692;8.186;2022-07-22T13:09:59;9.13;;;7.90;;
59530;SDS011;45349;48.692;8.186;2022-07-22T13:12:25;11.82;;;8.18;;
59530;SDS011;45349;48.692;8.186;2022-07-22T13:14:53;10.80;;;8.13;;
59530;SDS011;45349;48.692;8.186;2022-07-22T13:17:21;10.57;;;8.23;;
59530;SDS011;45349;48.692;8.186;2022-07-22T13:19:48;8.52;;;7.80;;
59530;SDS011;45349;48.692;8.186;2022-07-22T13:22:15;10.48;;;8.43;;
59530;SDS011;45349;48.692;8.186;2022-07-22T13:24:42;12.48;;;9.00;;
59530;SDS011;45349;48.692;8.186;2022-07-22T13:27:09;13.02;;;8.20;;
59530;SDS011;45349;48.692;8.186;2022-07-22T13:29:36;9.02;;;8.13;;
59530;SDS011;45349;48.692;8.186;2022-07-22T13:32:04;10.02;;;8.25;;
59530;SDS011;45349;48.692;8.186;2022-07-22T13:34:33;12.15;;;8.73;;
59530;SDS011;45349;48.692;8.186;2022-07-22T13:37:19;10.73;;;8.38;;
59530;SDS011;45349;48.692;8.186;2022-07-22T13:39:47;10.20;;;8.05;;
59530;SDS011;45349;48.692;8.186;2022-07-22T13:42:14;9.18;;;8.25;;
59530;SDS011;45349;48.692;8.186;2022-07-22T13:44:43;11.23;;;7.88;;
59530;SDS011;45349;48.692;8.186;2022-07-22T13:47:10;8.85;;;7.93;;
59530;SDS011;45349;48.692;8.186;2022-07-22T13:49:38;13.27;;;8.50;;
59530;SDS011;45349;48.692;8.186;2022-07-22T13:52:05;9.32;;;8.43;;
59530;SDS011;45349;48.692;8.186;2022-07-22T13:54:33;12.32;;;7.97;;
59530;SDS011;45349;48.692;8.186;2022-07-22T13:57:00;9.90;;;8.13;;
59530;SDS011;45349;48.692;8.186;2022-07-22T13:59:29;9.68;;;7.72;;
59530;SDS011;45349;48.692;8.186;2022-07-22T14:01:59;9.52;;;7.85;;
59530;SDS011;45349;48.692;8.186;2022-07-22T14:04:28;10.07;;;8.43;;
59530;SDS011;45349;48.692;8.186;2022-07-22T14:06:56;9.55;;;8.32;;
59530;SDS011;45349;48.692;8.186;2022-07-22T14:09:23;10.80;;;8.30;;
59530;SDS011;45349;48.692;8.186;2022-07-22T14:11:49;10.00;;;8.45;;
59530;SDS011;45349;48.692;8.186;2022-07-22T14:14:16;9.27;;;7.82;;
59530;SDS011;45349;48.692;8.186;2022-07-22T14:16:43;9.80;;;7.88;;
59530;SDS011;45349;48.692;8.186;2022-07-22T14:19:11;9.60;;;7.93;;
59530;SDS011;45349;48.692;8.186;2022-07-22T14:21:42;11.25;;;8.10;;
59530;SDS011;45349;48.692;8.186;2022-07-22T14:24:11;8.80;;;7.90;;
59530;SDS011;45349;48.692;8.186;2022-07-22T14:26:38;10.60;;;7.95;;
59530;SDS011;45349;48.692;8.186;2022-07-22T14:29:06;10.00;;;8.45;;
59530;SDS011;45349;48.692;8.186;2022-07-22T14:31:33;11.70;;;7.80;;
59530;SDS011;45349;48.692;8.186;2022-07-22T14:34:00;10.85;;;8.15;;
59530;SDS011;45349;48.692;8.186;2022-07-22T14:36:27;9.13;;;8.23;;
59530;SDS011;45349;48.692;8.186;2022-07-22T14:38:54;9.32;;;8.50;;
59530;SDS011;45349;48.692;8.186;2022-07-22T14:41:22;9.43;;;8.48;;
59530;SDS011;45349;48.692;8.186;2022-07-22T14:43:50;12.30;;;8.10;;
59530;SDS011;45349;48.692;8.186;2022-07-22T14:46:20;10.80;;;8.32;;
59530;SDS011;45349;48.692;8.186;2022-07-22T14:49:05;11.45;;;7.88;;
59530;SDS011;45349;48.692;8.186;2022-07-22T14:51:32;11.93;;;7.65;;
59530;SDS011;45349;48.692;8.186;2022-07-22T14:54:00;12.30;;;8.10;;
59530;SDS011;45349;48.692;8.186;2022-07-22T14:56:29;11.77;;;7.43;;
59530;SDS011;45349;48.692;8.186;2022-07-22T14:58:56;9.15;;;7.75;;
59530;SDS011;45349;48.692;8.186;2022-07-22T15:01:23;9.13;;;7.65;;
59530;SDS011;45349;48.692;8.186;2022-07-22T15:03:49;9.40;;;8.27;;
59530;SDS011;45349;48.692;8.186;2022-07-22T15:06:16;9.10;;;8.20;;